Wetterdaten: aktuell Donnerstag, 05.12.2019 21:13
Datum Zeit Temp. A. Feuchte A. Luftdruck Regen Wind Richtung Richtung ET UV Solar Taupunkt Windchill Windben Empfang
05.12.2019 21:13 -2,1 C 93 % 1023,2 hPa 0,0 l/m 0,0 km/h N 0 0,000 mm 0,0 UV-I 0 W/m -3,1 C -2,1 C 0,0 km/h 95,65 %
05.12.2019 20:13 -2,1 C 93 % 1023,4 hPa 0,0 l/m 0,0 km/h N 0 0,000 mm 0,0 UV-I 0 W/m -3,1 C -2,1 C 0,0 km/h 95,65 %
05.12.2019 19:13 -2,0 C 93 % 1023,3 hPa 0,0 l/m 0,0 km/h N 0 0,000 mm 0,0 UV-I 0 W/m -3,0 C -2,0 C 0,0 km/h 100,00 %
05.12.2019 18:13 -2,1 C 92 % 1023,1 hPa 0,0 l/m 0,0 km/h N 0 0,000 mm 0,0 UV-I 0 W/m -3,2 C -2,1 C 0,0 km/h 100,00 %
05.12.2019 17:13 -1,8 C 92 % 1022,8 hPa 0,0 l/m 0,0 km/h N 0 0,000 mm 0,0 UV-I 0 W/m -2,9 C -1,8 C 0,0 km/h 100,00 %
05.12.2019 16:13 -1,6 C 91 % 1022,7 hPa 0,0 l/m 0,0 km/h N 0 0,000 mm 0,0 UV-I 0 W/m -2,9 C -1,6 C 0,0 km/h 100,00 %
05.12.2019 15:13 -1,5 C 91 % 1022,6 hPa 0,0 l/m 1,6 km/h SO 135 0,000 mm 0,0 UV-I 16 W/m -2,8 C -1,5 C 6,4 km/h 95,65 %
05.12.2019 14:13 -1,2 C 91 % 1022,7 hPa 0,0 l/m 0,0 km/h N 0 0,025 mm 0,0 UV-I 37 W/m -2,5 C -1,2 C 0,0 km/h 95,65 %
05.12.2019 13:13 -1,3 C 91 % 1022,9 hPa 0,0 l/m 4,8 km/h SO 135 0,025 mm 0,0 UV-I 53 W/m -2,6 C -3,0 C 8,0 km/h 91,30 %
05.12.2019 12:13 -1,3 C 91 % 1023,2 hPa 0,0 l/m 6,4 km/h O 90 0,025 mm 0,0 UV-I 49 W/m -2,6 C -3,7 C 9,7 km/h 95,65 %
05.12.2019 11:13 -1,2 C 92 % 1023,5 hPa 0,0 l/m 3,2 km/h O-SO 112 0,025 mm 0,0 UV-I 58 W/m -2,3 C -1,2 C 9,7 km/h 91,30 %
05.12.2019 10:13 -1,6 C 92 % 1023,8 hPa 0,0 l/m 0,0 km/h N 0 0,000 mm 0,0 UV-I 46 W/m -2,7 C -1,6 C 0,0 km/h 100,00 %
05.12.2019 09:13 -1,8 C 92 % 1023,4 hPa 0,0 l/m 0,0 km/h N 0 0,000 mm 0,0 UV-I 21 W/m -2,9 C -1,8 C 0,0 km/h 100,00 %
05.12.2019 08:13 -1,9 C 92 % 1023,3 hPa 0,0 l/m 0,0 km/h N 0 0,000 mm 0,0 UV-I 7 W/m -3,0 C -1,9 C 0,0 km/h 95,65 %
05.12.2019 07:13 -1,8 C 91 % 1022,7 hPa 0,0 l/m 1,6 km/h O-SO 112 0,000 mm 0,0 UV-I 0 W/m -3,1 C -1,8 C 6,4 km/h 95,65 %
05.12.2019 06:13 -1,8 C 91 % 1022,3 hPa 0,0 l/m 0,0 km/h N 0 0,000 mm 0,0 UV-I 0 W/m -3,1 C -1,8 C 0,0 km/h 100,00 %
05.12.2019 05:13 -1,7 C 91 % 1022,1 hPa 0,0 l/m 4,8 km/h SO 135 0,000 mm 0,0 UV-I 0 W/m -3,0 C -3,4 C 6,4 km/h 100,00 %
05.12.2019 04:13 -1,5 C 91 % 1021,8 hPa 0,0 l/m 4,8 km/h SO 135 0,000 mm 0,0 UV-I 0 W/m -2,8 C -3,2 C 12,9 km/h 100,00 %
05.12.2019 03:13 -1,5 C 91 % 1021,3 hPa 0,0 l/m 0,0 km/h S-SW 202 0,000 mm 0,0 UV-I 0 W/m -2,8 C -1,5 C 3,2 km/h 95,65 %
05.12.2019 02:13 -1,4 C 92 % 1021,2 hPa 0,0 l/m 6,4 km/h O-SO 112 0,000 mm 0,0 UV-I 0 W/m -2,5 C -3,8 C 9,7 km/h 100,00 %
05.12.2019 01:13 -1,4 C 91 % 1020,9 hPa 0,0 l/m 0,0 km/h O-SO 112 0,000 mm 0,0 UV-I 0 W/m -2,7 C -1,4 C 3,2 km/h 100,00 %
05.12.2019 00:13 -1,2 C 91 % 1020,5 hPa 0,0 l/m 9,7 km/h O 90 0,000 mm 0,0 UV-I 0 W/m -2,5 C -4,7 C 17,7 km/h 95,65 %
05.12.2019 00:00 -1,1 C 91 % 1020,8 hPa 0,0 l/m 11,3 km/h O 90 0,000 mm 0,0 UV-I 0 W/m -2,4 C -5,0 C 14,5 km/h 100,00 %
_ Min-Zeit 17:34 00:00 00:13 - 00:36 - - - - - 17:34 04:32 01:10 00:26
Minimum _ -2,1 C 91 % 1020,5 hPa - 0,0 km/h - - - - - -3,2 C -5,9 C 0,0 km/h 86,96 %
_ Max-Zeit 00:00 18:43 10:06 00:00 00:01 - - 11:00 00:00 11:34 11:08 11:13 00:02 00:00
Maximum _ -1,1 C 93 % 1024,0 hPa 0,0 l/m 12,9 km/h
O-SO
- - 0,025 mm 0,0 UV-I 69 W/m -2,3 C -1,2 C 17,7 km/h
O-SO
100,00 %
Durchschnitt _ -1,6 C 92 % 1022,6 hPa #0,0 l/m 2,3 km/h O-SO - #0,100 mm 0,0 UV-I 36 W/m -2,8 C -2,3 C 4,2 km/h 97,63 %